Time;durP1;ratioP1;P1;durP2;ratioP2;P2;SDS_P1;SDS_P2;PMS_P1;PMS_P2;Temp;Humidity;BMP_temperature;BMP_pressure;BME280_temperature;BME280_humidity;BME280_pressure;Samples;Min_cycle;Max_cycle;Signal;HPM_P1;HPM_P2
2021/06/08 00:00:04;;;;;;;;;7.25;7.25;;;;;19.05;85.19;100772.19;5035914;28;9036;-75
2021/06/08 00:03:01;;;;;;;;;10.00;10.00;;;;;19.15;84.83;100774.28;5053992;28;8828;-75
2021/06/08 00:05:57;;;;;;;;;8.00;8.00;;;;;19.06;86.17;100768.19;5039600;28;8821;-75
2021/06/08 00:08:53;;;;;;;;;8.00;8.00;;;;;19.13;86.10;100764.66;5053591;28;8843;-74
2021/06/08 00:11:48;;;;;;;;;7.50;7.50;;;;;19.15;85.66;100765.06;5053682;28;8831;-75
2021/06/08 00:14:44;;;;;;;;;7.00;7.00;;;;;18.81;87.94;100764.34;5053818;28;9006;-75
2021/06/08 00:17:40;;;;;;;;;6.50;6.50;;;;;18.89;88.08;100761.22;5053775;28;8846;-75
2021/06/08 00:20:35;;;;;;;;;9.00;9.00;;;;;18.75;88.67;100760.28;5040439;28;8840;-75
2021/06/08 00:23:04;;;;;;;;;9.00;9.00;;;;;18.69;89.00;100756.22;5036806;28;8880;-75
2021/06/08 00:25:59;;;;;;;;;8.00;8.00;;;;;18.81;88.78;100756.75;5052451;28;8824;-75
2021/06/08 00:28:55;;;;;;;;;8.00;8.00;;;;;18.78;88.70;100745.50;5053339;28;8828;-75
2021/06/08 00:31:50;;;;;;;;;9.00;9.00;;;;;18.99;88.17;100753.31;5040213;28;8840;-75
2021/06/08 00:34:46;;;;;;;;;9.00;9.00;;;;;19.02;87.85;100749.75;5040341;28;8831;-75
2021/06/08 00:37:42;;;;;;;;;7.50;7.50;;;;;18.79;88.78;100756.34;5053007;28;8852;-75
2021/06/08 00:40:43;;;;;;;;;8.00;8.00;;;;;18.76;89.82;100759.09;5039844;28;8836;-75
2021/06/08 00:43:38;;;;;;;;;6.50;6.50;;;;;18.74;90.30;100753.06;5039900;28;8831;-74
2021/06/08 00:46:34;;;;;;;;;10.00;10.00;;;;;18.80;89.53;100751.53;5053063;28;8872;-74
2021/06/08 00:49:29;;;;;;;;;7.00;7.00;;;;;18.76;90.31;100748.69;5052935;28;8939;-74
2021/06/08 00:52:25;;;;;;;;;8.25;8.25;;;;;18.78;90.55;100751.91;5052813;28;9612;-74
2021/06/08 00:55:21;;;;;;;;;8.25;8.25;;;;;18.71;91.11;100745.41;5053158;28;8844;-74
2021/06/08 00:58:17;;;;;;;;;9.00;9.00;;;;;18.76;91.28;100754.28;5052996;28;8950;-73
2021/06/08 01:01:13;;;;;;;;;9.00;9.00;;;;;19.07;90.12;100749.38;5053066;28;8836;-74
2021/06/08 01:04:10;;;;;;;;;10.00;10.00;;;;;19.04;90.42;100744.56;5039426;28;8846;-74
2021/06/08 01:07:06;;;;;;;;;9.50;9.50;;;;;19.02;91.45;100738.53;5052808;28;8852;-75
2021/06/08 01:10:10;;;;;;;;;10.75;10.75;;;;;19.03;91.05;100740.94;5052531;28;8932;-74
2021/06/08 01:12:38;;;;;;;;;9.50;9.50;;;;;18.89;91.15;100738.81;5053574;28;8839;-74
2021/06/08 01:15:34;;;;;;;;;7.75;7.75;;;;;18.76;91.85;100742.28;5052692;28;8851;-74
2021/06/08 01:18:29;;;;;;;;;8.50;8.50;;;;;18.81;92.21;100739.13;5052705;28;8832;-75
2021/06/08 01:21:27;;;;;;;;;9.00;9.00;;;;;18.92;91.24;100736.44;5038933;28;8840;-74
2021/06/08 01:24:23;;;;;;;;;10.00;10.00;;;;;18.82;91.40;100741.56;5052558;28;8851;-75
2021/06/08 01:27:20;;;;;;;;;8.75;8.75;;;;;18.59;92.58;100740.88;5052320;28;8855;-74
2021/06/08 01:30:18;;;;;;;;;9.25;9.25;;;;;18.76;91.78;100736.69;5052086;28;9594;-74
2021/06/08 01:33:15;;;;;;;;;9.75;9.75;;;;;18.92;91.09;100733.63;5051351;28;8883;-74
2021/06/08 01:36:18;;;;;;;;;10.25;10.25;;;;;18.92;90.71;100747.63;5052571;28;8832;-74
2021/06/08 01:39:14;;;;;;;;;9.25;9.25;;;;;18.81;91.39;100739.94;5052537;28;8851;-75
2021/06/08 01:42:10;;;;;;;;;10.00;10.00;;;;;18.92;90.81;100751.25;5052203;28;9582;-75
2021/06/08 01:45:06;;;;;;;;;7.00;7.00;;;;;18.97;90.48;100748.09;5047763;28;8835;-75
2021/06/08 01:48:03;;;;;;;;;10.00;10.00;;;;;19.11;89.73;100745.41;5038770;28;8846;-74
2021/06/08 01:51:08;;;;;;;;;10.50;10.50;;;;;19.10;90.01;100745.81;5051752;28;8859;-74
2021/06/08 01:54:24;;;;;;;;;10.00;10.00;;;;;19.16;89.76;100738.63;5038578;28;8844;-74
2021/06/08 01:57:47;;;;;;;;;10.00;10.00;;;;;19.09;89.78;100747.81;5051743;28;8836;-74
2021/06/08 02:00:51;;;;;;;;;9.00;8.75;;;;;18.81;90.80;100753.16;5051933;28;8832;-74
2021/06/08 02:03:30;;;;;;;;;11.00;11.00;;;;;18.90;90.47;100762.03;5052960;28;8836;-74
2021/06/08 02:07:07;;;;;;;;;8.25;8.25;;;;;19.04;89.99;100759.38;5051824;28;9593;-74
2021/06/08 02:10:21;;;;;;;;;11.50;11.50;;;;;18.83;90.30;100759.16;5050979;28;8916;-74
2021/06/08 02:13:33;;;;;;;;;9.75;9.75;;;;;18.80;91.65;100754.34;5051798;28;8836;-74
2021/06/08 02:16:39;;;;;;;;;7.50;7.50;;;;;19.02;90.50;100761.75;5051676;28;8836;-74
2021/06/08 02:19:37;;;;;;;;;10.25;10.25;;;;;18.70;91.52;100761.44;5051433;28;8848;-74
2021/06/08 02:22:37;;;;;;;;;11.75;11.50;;;;;18.81;91.33;100765.16;5051871;28;8840;-74
2021/06/08 02:25:34;;;;;;;;;10.75;7.50;;;;;18.95;90.90;100767.31;5051339;28;8840;-75
2021/06/08 02:28:34;;;;;;;;;12.25;11.00;;;;;19.01;90.32;100767.72;5051459;28;8913;-74
2021/06/08 02:31:32;;;;;;;;;8.25;8.25;;;;;18.93;90.65;100772.47;5051630;28;8839;-74
2021/06/08 02:34:29;;;;;;;;;9.25;9.25;;;;;18.95;90.25;100761.69;5051809;28;8870;-74
2021/06/08 02:37:25;;;;;;;;;9.75;9.75;;;;;19.06;89.56;100767.38;5052109;28;8867;-75
2021/06/08 02:40:22;;;;;;;;;9.75;9.00;;;;;19.01;89.37;100768.53;5051571;28;8863;-74
2021/06/08 02:43:20;;;;;;;;;10.00;10.00;;;;;19.03;90.09;100763.38;5051660;28;8832;-74
2021/06/08 02:46:16;;;;;;;;;11.00;11.00;;;;;19.22;89.03;100761.50;5054566;28;8844;-74
2021/06/08 02:49:12;;;;;;;;;10.25;10.25;;;;;19.18;88.83;100772.72;5055396;28;8909;-74
2021/06/08 02:52:08;;;;;;;;;10.25;10.25;;;;;19.09;89.96;100769.41;5041662;28;8859;-74
2021/06/08 02:55:05;;;;;;;;;8.00;8.00;;;;;19.12;89.62;100772.25;5055255;28;8956;-74
2021/06/08 02:58:02;;;;;;;;;9.00;9.00;;;;;19.23;89.10;100777.94;5042174;28;8840;-74
2021/06/08 03:00:57;;;;;;;;;10.50;10.50;;;;;18.99;89.90;100779.34;5055452;28;8832;-74
2021/06/08 03:03:38;;;;;;;;;13.25;13.25;;;;;19.03;90.00;100791.41;5056594;28;8844;-74
2021/06/08 03:06:39;;;;;;;;;12.50;12.50;;;;;19.13;89.85;100778.66;5042186;28;8942;-75
2021/06/08 03:09:40;;;;;;;;;11.25;11.25;;;;;18.81;90.48;100787.56;5055213;28;8835;-74
2021/06/08 03:12:56;;;;;;;;;10.50;10.50;;;;;19.09;89.77;100791.81;5041322;28;8852;-74
2021/06/08 03:15:59;;;;;;;;;12.00;12.00;;;;;19.31;88.56;100790.81;5055126;28;8827;-75
2021/06/08 03:19:00;;;;;;;;;13.50;13.50;;;;;19.13;89.31;100799.09;5054893;28;8847;-75
2021/06/08 03:22:01;;;;;;;;;12.25;12.25;;;;;19.21;88.54;100785.13;5056033;28;8982;-75
2021/06/08 03:24:59;;;;;;;;;10.75;10.75;;;;;19.14;88.89;100792.28;5049043;28;8828;-75
2021/06/08 03:27:48;;;;;;;;;13.00;13.00;;;;;19.23;88.67;100799.56;5054948;28;8870;-75
2021/06/08 03:30:18;;;;;;;;;13.75;13.75;;;;;19.03;89.58;100787.78;5055905;28;8868;-75
2021/06/08 03:33:13;;;;;;;;;14.25;14.00;;;;;18.81;90.54;100801.59;5054321;28;8839;-75
2021/06/08 03:36:10;;;;;;;;;15.00;15.00;;;;;18.93;89.92;100797.69;5041475;28;9581;-74
2021/06/08 03:39:06;;;;;;;;;19.25;18.50;;;;;19.01;90.54;100802.16;5050522;28;8818;-74
2021/06/08 03:42:03;;;;;;;;;13.50;13.50;;;;;19.09;90.32;100797.44;5051042;28;8838;-75
2021/06/08 03:44:59;;;;;;;;;15.75;15.75;;;;;19.29;89.80;100798.03;5055766;28;8833;-75
2021/06/08 03:47:55;;;;;;;;;18.25;18.25;;;;;19.48;88.73;100800.59;5035962;28;8988;-75
2021/06/08 03:50:51;;;;;;;;;23.50;20.00;;;;;19.49;87.90;100807.81;5035784;28;8866;-75
2021/06/08 03:53:47;;;;;;;;;22.75;22.75;;;;;19.54;87.76;100810.25;5045833;28;8842;-75
2021/06/08 03:56:48;;;;;;;;;22.50;21.25;;;;;19.45;87.89;100804.97;5033077;28;8858;-75
2021/06/08 03:59:19;;;;;;;;;24.25;24.25;;;;;19.39;87.22;100814.94;5035751;28;8850;-75
2021/06/08 04:02:18;;;;;;;;;20.00;20.00;;;;;19.44;87.32;100816.59;5048331;28;8817;-76
2021/06/08 04:05:15;;;;;;;;;17.50;17.50;;;;;19.62;87.13;100820.34;5066209;28;8844;-75
2021/06/08 04:08:11;;;;;;;;;20.75;20.00;;;;;19.61;86.52;100810.31;5054046;28;8931;-75
2021/06/08 04:11:10;;;;;;;;;16.75;16.75;;;;;19.63;86.62;100807.97;5064755;28;9643;-75
2021/06/08 04:14:08;;;;;;;;;20.25;20.25;;;;;19.81;85.65;100813.69;5053951;28;8945;-76
2021/06/08 04:17:04;;;;;;;;;17.75;17.75;;;;;19.86;85.42;100818.09;5040437;28;8824;-76
2021/06/08 04:20:00;;;;;;;;;16.50;16.50;;;;;19.89;84.89;100817.34;5053775;28;8833;-75
2021/06/08 04:22:31;;;;;;;;;18.25;18.25;;;;;19.94;84.63;100817.78;5056622;28;8957;-76
2021/06/08 04:25:28;;;;;;;;;19.75;18.50;;;;;19.94;84.08;100816.97;5041160;28;8829;-75
2021/06/08 04:27:56;;;;;;;;;18.25;18.25;;;;;19.90;83.39;100821.75;5038308;28;8842;-76
2021/06/08 04:30:55;;;;;;;;;17.75;17.75;;;;;19.96;83.81;100823.81;5040467;28;8849;-74
2021/06/08 04:33:51;;;;;;;;;19.75;19.25;;;;;20.15;82.52;100824.69;5040474;28;8821;-74
2021/06/08 04:36:49;;;;;;;;;19.50;18.50;;;;;20.18;81.73;100829.53;5040165;28;9590;-75
2021/06/08 04:39:45;;;;;;;;;18.50;18.50;;;;;20.22;82.33;100833.16;5043717;28;8840;-75
2021/06/08 04:42:48;;;;;;;;;19.25;18.50;;;;;20.01;82.55;100825.41;5057526;28;8847;-75
2021/06/08 04:45:44;;;;;;;;;21.50;21.25;;;;;19.85;82.59;100830.53;5064714;28;8921;-75
2021/06/08 04:48:41;;;;;;;;;19.00;19.00;;;;;20.19;82.78;100825.53;5053325;28;8920;-75
2021/06/08 04:51:37;;;;;;;;;18.50;17.25;;;;;19.70;82.40;100830.44;5052942;28;8836;-75
2021/06/08 04:54:34;;;;;;;;;24.00;24.00;;;;;19.97;82.35;100822.59;5053322;28;8848;-74
2021/06/08 04:57:33;;;;;;;;;29.25;28.50;;;;;20.32;81.18;100828.78;5052910;28;8862;-75
2021/06/08 05:00:37;;;;;;;;;53.00;43.67;;;;;20.42;80.15;100819.63;5051257;28;8848;-76
2021/06/08 05:03:42;;;;;;;;;38.50;35.25;;;;;20.39;80.16;100824.00;5032904;28;9704;-75
2021/06/08 05:06:43;;;;;;;;;37.75;33.25;;;;;20.55;79.21;100823.72;5034410;28;8964;-75
2021/06/08 05:09:43;;;;;;;;;44.00;38.75;;;;;20.50;79.52;100822.09;5035112;28;8826;-75
2021/06/08 05:12:46;;;;;;;;;48.67;40.00;;;;;20.78;78.55;100818.59;5052582;28;8854;-75
2021/06/08 05:15:44;;;;;;;;;36.50;33.50;;;;;20.88;77.47;100819.81;5052745;28;8987;-76
2021/06/08 05:18:46;;;;;;;;;19.50;19.50;;;;;21.34;78.39;100811.47;5052748;28;8910;-74
2021/06/08 05:21:44;;;;;;;;;20.50;20.50;;;;;21.40;77.52;100808.25;5053305;28;8847;-74
2021/06/08 05:24:40;;;;;;;;;14.75;13.75;;;;;21.87;76.46;100809.81;5067566;28;8839;-73
2021/06/08 05:27:37;;;;;;;;;18.25;18.25;;;;;21.91;75.37;100811.38;5065517;28;9577;-75
2021/06/08 05:30:32;;;;;;;;;24.25;24.25;;;;;21.87;74.14;100813.44;5051748;28;8840;-75
2021/06/08 05:33:28;;;;;;;;;31.75;29.75;;;;;21.42;76.03;100820.69;5038298;28;8836;-75
2021/06/08 05:36:37;;;;;;;;;24.25;24.25;;;;;21.78;75.25;100809.44;5054204;28;8860;-75
2021/06/08 05:39:38;;;;;;;;;40.75;35.25;;;;;22.03;75.17;100820.63;5052834;28;8832;-75
2021/06/08 05:42:27;;;;;;;;;25.50;25.50;;;;;22.11;75.44;100805.34;5057181;28;9699;-73
2021/06/08 05:45:23;;;;;;;;;41.50;36.00;;;;;22.46;73.48;100821.31;5032594;28;8827;-75
2021/06/08 05:48:20;;;;;;;;;31.75;30.25;;;;;22.47;73.15;100814.47;5053316;28;8823;-76
2021/06/08 05:51:17;;;;;;;;;44.25;38.25;;;;;22.54;72.47;100817.25;5071962;28;8842;-75
2021/06/08 05:54:13;;;;;;;;;52.00;42.50;;;;;22.67;72.32;100818.38;5072173;28;8824;-75
2021/06/08 05:57:09;;;;;;;;;35.75;33.25;;;;;22.27;71.19;100816.16;5071787;28;8839;-75
2021/06/08 06:00:06;;;;;;;;;44.75;38.00;;;;;22.71;70.82;100818.38;5049667;28;8825;-74
2021/06/08 06:03:02;;;;;;;;;51.25;41.50;;;;;22.69;69.45;100813.13;5051890;28;8991;-75
2021/06/08 06:05:57;;;;;;;;;34.00;31.25;;;;;22.77;69.65;100819.53;5061791;28;8840;-75
2021/06/08 06:08:54;;;;;;;;;41.00;35.50;;;;;22.76;69.18;100818.75;5051562;28;9586;-75
2021/06/08 06:11:52;;;;;;;;;43.75;37.00;;;;;22.96;67.87;100818.25;5052996;28;8843;-74
2021/06/08 06:14:49;;;;;;;;;34.75;32.50;;;;;23.32;68.05;100820.84;5051632;28;8839;-75
2021/06/08 06:17:46;;;;;;;;;34.50;32.25;;;;;23.68;67.75;100824.16;5053222;28;8859;-74
2021/06/08 06:20:44;;;;;;;;;27.50;27.50;;;;;23.26;64.36;100820.47;5051005;28;8828;-77
2021/06/08 06:23:40;;;;;;;;;30.00;28.00;;;;;23.21;66.88;100810.41;5051987;28;8823;-77
2021/06/08 06:26:37;;;;;;;;;38.00;34.75;;;;;23.27;63.79;100825.69;5052992;28;8839;-76
2021/06/08 06:29:32;;;;;;;;;22.50;22.50;;;;;23.48;64.78;100821.13;5039580;28;9020;-76
2021/06/08 06:32:28;;;;;;;;;22.40;21.80;;;;;23.48;63.93;100824.72;5053010;28;8963;-75
2021/06/08 06:35:24;;;;;;;;;18.80;18.00;;;;;23.49;63.85;100825.53;5037850;28;8894;-77
2021/06/08 06:37:52;;;;;;;;;19.80;19.80;;;;;23.73;63.04;100818.09;5066258;28;8834;-74
2021/06/08 06:40:50;;;;;;;;;10.80;10.80;;;;;23.40;63.88;100820.38;5071555;28;8815;-75
2021/06/08 06:43:50;;;;;;;;;12.80;12.60;;;;;23.53;62.85;100817.81;5072808;28;8884;-74
2021/06/08 06:46:48;;;;;;;;;9.60;9.60;;;;;23.75;62.04;100815.63;5063105;28;8829;-74
2021/06/08 06:49:30;;;;;;;;;18.20;14.20;;;;;23.57;61.68;100825.06;5035890;28;8829;-74
2021/06/08 06:51:58;;;;;;;;;11.20;11.20;;;;;23.80;61.92;100821.66;5035197;28;8841;-76
2021/06/08 06:54:54;;;;;;;;;9.40;9.40;;;;;24.01;59.34;100817.81;5051880;28;8877;-74
2021/06/08 06:57:22;;;;;;;;;7.20;7.20;;;;;24.31;59.65;100824.75;5052367;28;8849;-75
2021/06/08 06:59:50;;;;;;;;;4.00;3.80;;;;;24.56;59.51;100827.28;5029843;28;8840;-75
2021/06/08 07:02:46;;;;;;;;;5.40;5.40;;;;;24.21;57.77;100834.13;5051084;28;8901;-75
2021/06/08 07:05:44;;;;;;;;;9.60;9.60;;;;;24.45;57.77;100820.94;5050839;28;8832;-74
2021/06/08 07:08:14;;;;;;;;;7.40;7.40;;;;;24.47;58.68;100827.81;5050888;28;8914;-74
2021/06/08 07:11:11;;;;;;;;;9.00;7.60;;;;;24.26;58.60;100828.03;5044111;28;8854;-74
2021/06/08 07:14:07;;;;;;;;;5.00;5.00;;;;;24.17;59.26;100822.88;5062661;28;9682;-73
2021/06/08 07:17:03;;;;;;;;;4.00;4.00;;;;;24.27;58.01;100826.78;5056232;28;8819;-75
2021/06/08 07:19:45;;;;;;;;;7.40;7.40;;;;;24.40;59.19;100816.56;5072188;28;8854;-75
2021/06/08 07:22:15;;;;;;;;;107.75;102.50;;;;;24.70;58.28;100823.47;5072155;28;8831;-75
2021/06/08 07:24:43;;;;;;;;;62.00;51.00;;;;;24.81;56.13;100826.94;5072040;28;10988;-75
2021/06/08 07:27:13;;;;;;;;;15.40;15.40;;;;;25.02;56.52;100814.53;5053992;28;9347;-75
2021/06/08 07:29:44;;;;;;;;;12.00;12.00;;;;;25.21;56.06;100814.63;5072216;28;8839;-75
2021/06/08 07:32:21;;;;;;;;;5.20;5.20;;;;;25.11;54.88;100817.63;5089058;28;8847;-75
2021/06/08 07:34:54;;;;;;;;;9.60;9.60;;;;;24.80;57.38;100825.34;5091252;28;8831;-75
2021/06/08 07:37:25;;;;;;;;;5.20;5.20;;;;;25.03;55.83;100813.28;5075790;28;8870;-75
2021/06/08 07:39:57;;;;;;;;;3.80;3.80;;;;;25.27;56.74;100808.50;5058242;28;8835;-75
2021/06/08 07:42:37;;;;;;;;;6.60;6.60;;;;;25.35;55.59;100807.16;5075918;28;9662;-75
2021/06/08 07:45:09;;;;;;;;;5.80;4.80;;;;;25.59;53.66;100808.75;5075122;28;8877;-74
2021/06/08 07:47:38;;;;;;;;;5.60;5.60;;;;;25.15;52.53;100796.56;5075507;28;8835;-75
2021/06/08 07:50:09;;;;;;;;;4.80;4.80;;;;;25.72;54.46;100798.44;5075342;28;8827;-75
2021/06/08 07:52:37;;;;;;;;;2.60;2.60;;;;;25.69;52.12;100801.31;5073914;28;8839;-76
2021/06/08 07:55:06;;;;;;;;;5.20;5.20;;;;;25.59;53.37;100793.78;5090697;28;8835;-75
2021/06/08 07:57:34;;;;;;;;;6.00;5.80;;;;;25.87;53.37;100798.19;5074950;28;8920;-75
2021/06/08 08:00:10;;;;;;;;;3.00;3.00;;;;;26.20;53.12;100787.81;5075107;28;8842;-75
2021/06/08 08:02:40;;;;;;;;;3.20;3.20;;;;;26.04;50.49;100789.31;5075262;28;8827;-74
2021/06/08 08:05:15;;;;;;;;;4.20;4.20;;;;;26.20;50.31;100799.94;5074715;28;8835;-75
2021/06/08 08:07:45;;;;;;;;;4.00;4.00;;;;;26.55;50.52;100797.63;5057306;28;8824;-75
2021/06/08 08:10:21;;;;;;;;;3.40;3.40;;;;;26.55;50.19;100791.97;5073949;28;8836;-76
2021/06/08 08:12:50;;;;;;;;;4.20;4.20;;;;;26.44;50.66;100797.84;5074930;28;8993;-76
2021/06/08 08:15:19;;;;;;;;;1.80;1.80;;;;;26.10;52.32;100795.28;5074808;28;8924;-75
2021/06/08 08:17:49;;;;;;;;;6.20;6.20;;;;;25.61;54.36;100794.97;5073565;28;8859;-75
2021/06/08 08:20:39;;;;;;;;;3.20;3.20;;;;;25.28;53.96;100793.91;5074930;28;8846;-77
2021/06/08 08:23:08;;;;;;;;;5.00;5.00;;;;;25.85;53.28;100789.31;5073784;28;8851;-75
2021/06/08 08:25:37;;;;;;;;;2.80;2.80;;;;;25.86;52.60;100788.09;5074550;28;9631;-75
2021/06/08 08:28:06;;;;;;;;;5.40;5.40;;;;;26.17;54.72;100789.47;5090360;28;8843;-76
2021/06/08 08:30:34;;;;;;;;;4.60;4.60;;;;;25.65;54.10;100781.53;5074636;28;8863;-75
2021/06/08 08:33:03;;;;;;;;;5.00;5.00;;;;;25.94;54.52;100787.50;5047386;28;8839;-73
2021/06/08 08:36:00;;;;;;;;;4.80;4.80;;;;;25.92;55.43;100787.16;5052718;28;8848;-75
2021/06/08 08:38:57;;;;;;;;;4.60;4.60;;;;;25.97;55.73;100786.63;5038794;28;8862;-74
2021/06/08 08:41:45;;;;;;;;;7.00;7.00;;;;;25.97;54.93;100780.97;5049410;28;8848;-74
2021/06/08 08:44:33;;;;;;;;;5.80;5.80;;;;;25.55;55.03;100770.41;5055622;28;8826;-76
2021/06/08 08:47:19;;;;;;;;;4.00;4.00;;;;;25.57;55.46;100776.44;5055484;28;9523;-76
2021/06/08 08:50:16;;;;;;;;;7.00;7.00;;;;;25.35;54.61;100762.66;5039985;28;8848;-77
2021/06/08 08:53:16;;;;;;;;;8.00;8.00;;;;;25.75;53.94;100763.56;5054653;28;8914;-76
2021/06/08 08:55:45;;;;;;;;;4.80;4.80;;;;;26.16;53.69;100768.03;5046837;28;8856;-75
2021/06/08 08:58:15;;;;;;;;;4.20;4.20;;;;;26.31;54.87;100763.69;5037376;28;8851;-75
2021/06/08 09:01:11;;;;;;;;;5.80;5.80;;;;;26.55;52.40;100760.78;5030055;28;8827;-75
2021/06/08 09:03:53;;;;;;;;;3.80;3.80;;;;;25.65;53.67;100753.22;5052803;28;8878;-77
2021/06/08 09:06:22;;;;;;;;;5.00;5.00;;;;;26.36;52.15;100764.38;5052091;28;8844;-77
2021/06/08 09:09:08;;;;;;;;;5.20;5.20;;;;;26.86;51.19;100772.63;5021479;28;8982;-78
2021/06/08 09:11:59;;;;;;;;;3.20;3.20;;;;;26.83;50.00;100773.47;5048690;28;8853;-77
2021/06/08 09:14:54;;;;;;;;;8.20;8.20;;;;;27.09;49.48;100766.81;5030844;28;8948;-77
2021/06/08 09:17:58;;;;;;;;;8.40;8.40;;;;;26.98;51.44;100762.59;5019513;28;8936;-76
2021/06/08 09:20:53;;;;;;;;;9.40;9.40;;;;;26.62;49.95;100766.28;5019275;28;8838;-78
2021/06/08 09:23:50;;;;;;;;;5.40;5.40;;;;;25.72;52.35;100761.63;5019153;28;8842;-77
2021/06/08 09:26:18;;;;;;;;;4.60;4.60;;;;;26.09;52.63;100762.53;5033240;28;9603;-76
2021/06/08 09:28:47;;;;;;;;;4.00;4.00;;;;;25.92;52.70;100760.84;5033433;28;9773;-75
2021/06/08 09:31:42;;;;;;;;;4.40;4.40;;;;;25.64;53.41;100753.66;5031978;28;8873;-76
2021/06/08 09:34:10;;;;;;;;;4.40;4.40;;;;;25.67;52.13;100752.78;5015561;28;8939;-76
2021/06/08 09:36:39;;;;;;;;;3.80;3.80;;;;;25.61;52.27;100734.69;5033124;28;8834;-77
2021/06/08 09:39:35;;;;;;;;;5.00;5.00;;;;;26.10;52.37;100737.81;5031825;28;8882;-75
2021/06/08 09:42:26;;;;;;;;;3.20;3.20;;;;;26.26;52.99;100733.00;5016715;28;8874;-75
2021/06/08 09:45:23;;;;;;;;;4.40;4.40;;;;;26.49;51.26;100720.78;5000136;28;8910;-76
2021/06/08 09:48:19;;;;;;;;;3.80;3.80;;;;;26.58;50.57;100718.13;5017205;28;8950;-75
2021/06/08 09:50:49;;;;;;;;;3.40;3.40;;;;;26.89;50.54;100718.59;5043689;28;8840;-75
2021/06/08 09:53:27;;;;;;;;;3.00;3.00;;;;;26.67;48.97;100722.41;5033175;28;8869;-79
2021/06/08 09:56:25;;;;;;;;;5.00;5.00;;;;;27.31;49.86;100724.50;5031393;28;8953;-76
2021/06/08 09:58:58;;;;;;;;;6.00;4.40;;;;;27.76;48.21;100726.56;5032935;28;8839;-75
2021/06/08 10:01:53;;;;;;;;;3.00;3.00;;;;;27.18;46.52;100719.97;5020677;28;8846;-76
2021/06/08 10:04:50;;;;;;;;;5.80;5.80;;;;;27.70;44.66;100708.47;5019960;28;8876;-76
2021/06/08 10:07:38;;;;;;;;;4.20;4.20;;;;;27.16;46.77;100697.72;5018469;28;8866;-77
2021/06/08 10:10:09;;;;;;;;;4.00;4.00;;;;;27.20;47.23;100700.44;5015631;28;8858;-75
2021/06/08 10:13:18;;;;;;;;;2.80;2.80;;;;;27.01;47.12;100700.09;5045385;28;8849;-74
2021/06/08 10:16:07;;;;;;;;;4.00;4.00;;;;;26.36;50.20;100705.66;5051158;28;8913;-75
2021/06/08 10:18:52;;;;;;;;;3.20;3.20;;;;;26.26;50.97;100710.31;5052470;28;8918;-75
2021/06/08 10:21:49;;;;;;;;;3.80;3.80;;;;;25.13;51.65;100705.63;5051108;28;8907;-78
2021/06/08 10:24:44;;;;;;;;;5.00;5.00;;;;;25.32;52.18;100703.28;5037790;28;8965;-74
2021/06/08 10:27:17;;;;;;;;;6.20;6.20;;;;;25.13;52.25;100702.00;5037096;28;8838;-75
2021/06/08 10:29:46;;;;;;;;;2.00;2.00;;;;;24.87;52.17;100709.28;5031126;28;9628;-75
2021/06/08 10:32:18;;;;;;;;;5.80;5.80;;;;;25.09;53.90;100719.03;5028040;28;8860;-76
2021/06/08 10:35:13;;;;;;;;;5.60;5.60;;;;;24.85;57.86;100740.03;5020800;28;8944;-74
2021/06/08 10:38:11;;;;;;;;;4.40;4.40;;;;;24.56;61.02;100743.25;5025231;28;8856;-75
2021/06/08 10:40:41;;;;;;;;;5.20;5.20;;;;;24.10;65.32;100752.31;5051484;28;8852;-74
2021/06/08 10:43:37;;;;;;;;;6.20;6.20;;;;;23.63;70.51;100743.56;5026688;28;8854;-74
2021/06/08 10:46:41;;;;;;;;;5.80;5.80;;;;;23.45;70.46;100738.06;5036367;28;8845;-73
2021/06/08 10:49:39;;;;;;;;;4.20;4.20;;;;;23.24;70.94;100729.81;5036088;28;8836;-73
2021/06/08 10:52:46;;;;;;;;;5.80;5.80;;;;;23.02;71.92;100732.00;5037879;28;8957;-73
2021/06/08 10:55:33;;;;;;;;;8.00;8.00;;;;;23.18;70.47;100737.91;5036492;28;8880;-74
2021/06/08 10:58:53;;;;;;;;;7.80;7.80;;;;;23.02;70.36;100734.84;5036436;28;8848;-73
2021/06/08 11:01:33;;;;;;;;;5.20;5.20;;;;;22.85;70.39;100747.84;5032520;28;8846;-73
2021/06/08 11:04:04;;;;;;;;;7.20;7.20;;;;;22.99;70.45;100759.00;5032419;28;8858;-73
2021/06/08 11:06:45;;;;;;;;;6.40;6.40;;;;;22.85;71.55;100766.72;5017141;28;8877;-73
2021/06/08 11:09:41;;;;;;;;;3.60;3.60;;;;;22.36;72.16;100772.25;5035231;28;8842;-74
2021/06/08 11:12:15;;;;;;;;;8.60;8.60;;;;;22.51;70.42;100781.44;5042574;28;8867;-74
2021/06/08 11:14:48;;;;;;;;;4.00;4.00;;;;;22.50;69.66;100773.41;5056013;28;8936;-73
2021/06/08 11:17:37;;;;;;;;;1.20;1.20;;;;;21.81;69.20;100772.00;5055494;28;8843;-75
2021/06/08 11:20:33;;;;;;;;;1.60;1.60;;;;;21.79;71.53;100772.44;5034918;28;8842;-75
2021/06/08 11:23:43;;;;;;;;;3.20;3.20;;;;;21.84;71.37;100771.19;5034847;28;8889;-75
2021/06/08 11:26:48;;;;;;;;;7.25;7.00;;;;;22.21;71.67;100779.16;5026465;28;8893;-74
2021/06/08 11:29:55;;;;;;;;;2.00;2.00;;;;;21.78;72.74;100775.66;5034549;28;8946;-75
2021/06/08 11:32:45;;;;;;;;;2.60;2.60;;;;;21.68;73.74;100777.25;5046995;28;8966;-75
2021/06/08 11:35:42;;;;;;;;;2.00;2.00;;;;;21.31;73.63;100784.13;5054832;28;8843;-75
2021/06/08 11:38:38;;;;;;;;;1.80;1.80;;;;;21.39;73.56;100784.91;5054299;28;8832;-75
2021/06/08 11:41:56;;;;;;;;;1.60;1.60;;;;;21.44;74.45;100800.59;5040478;28;8910;-74
2021/06/08 11:45:28;;;;;;;;;2.20;2.20;;;;;20.56;74.78;100814.09;5032468;28;8863;-75
2021/06/08 11:47:56;;;;;;;;;2.00;2.00;;;;;20.59;76.88;100818.91;5049624;28;8845;-74
2021/06/08 11:50:46;;;;;;;;;4.75;4.25;;;;;20.31;78.80;100824.38;5040303;28;8852;-73
2021/06/08 11:53:27;;;;;;;;;2.00;2.00;;;;;20.43;77.62;100810.81;5048835;28;8906;-74
2021/06/08 11:56:12;;;;;;;;;1.75;1.75;;;;;20.16;76.79;100812.28;5055038;28;8829;-74
2021/06/08 11:58:40;;;;;;;;;2.00;2.00;;;;;19.91;77.88;100810.13;5054970;28;8841;-74
2021/06/08 12:01:37;;;;;;;;;2.00;2.00;;;;;19.87;78.23;100808.50;5039216;28;8857;-74
2021/06/08 12:04:07;;;;;;;;;1.00;1.00;;;;;19.63;78.98;100801.50;5037725;28;8834;-74
2021/06/08 12:06:55;;;;;;;;;2.00;2.00;;;;;19.55;79.41;100795.03;5047104;28;8942;-74
2021/06/08 12:09:51;;;;;;;;;4.75;4.75;;;;;19.53;79.87;100791.00;5051822;28;9590;-74
2021/06/08 12:12:49;;;;;;;;;2.75;2.75;;;;;19.40;81.37;100794.13;5053886;28;9396;-74
2021/06/08 12:15:47;;;;;;;;;3.75;3.75;;;;;19.23;82.90;100789.16;5023335;28;8888;-74
2021/06/08 12:18:43;;;;;;;;;3.00;3.00;;;;;19.39;82.42;100783.28;5052502;28;8824;-74
2021/06/08 12:21:17;;;;;;;;;2.00;2.00;;;;;19.60;80.43;100777.84;5054433;28;8847;-75
2021/06/08 12:24:17;;;;;;;;;2.25;2.25;;;;;19.85;79.83;100785.63;5053581;28;8844;-76
2021/06/08 12:27:07;;;;;;;;;6.00;6.00;;;;;19.48;81.03;100788.56;5034141;28;8830;-75
2021/06/08 12:30:06;;;;;;;;;4.00;4.00;;;;;19.66;82.06;100781.13;5033337;28;8854;-74
2021/06/08 12:33:04;;;;;;;;;3.00;3.00;;;;;19.82;81.65;100772.41;5021182;28;8834;-75
2021/06/08 12:36:04;;;;;;;;;2.25;2.25;;;;;19.92;81.64;100766.03;5044865;28;8850;-74
2021/06/08 12:38:50;;;;;;;;;3.00;3.00;;;;;19.66;81.74;100756.66;5052969;28;8893;-75
2021/06/08 12:41:34;;;;;;;;;4.25;4.00;;;;;19.69;81.71;100741.84;5054628;28;8848;-75
2021/06/08 12:44:02;;;;;;;;;5.00;5.00;;;;;20.26;81.51;100742.13;5036897;28;8864;-74
2021/06/08 12:46:38;;;;;;;;;6.25;6.25;;;;;20.02;82.29;100747.66;5061718;28;8907;-74
2021/06/08 12:49:18;;;;;;;;;5.00;5.00;;;;;19.81;82.10;100753.94;5073943;28;8948;-74
2021/06/08 12:51:57;;;;;;;;;3.50;3.50;;;;;19.71;82.20;100759.13;5056186;28;8986;-75
2021/06/08 12:54:54;;;;;;;;;5.00;5.00;;;;;19.60;82.55;100763.03;5039302;28;8878;-74
2021/06/08 12:57:31;;;;;;;;;2.25;2.25;;;;;19.75;82.74;100775.16;5053773;28;8847;-74
2021/06/08 13:00:09;;;;;;;;;3.75;3.75;;;;;19.47;83.71;100784.94;5053880;28;8925;-75
2021/06/08 13:03:05;;;;;;;;;5.00;5.00;;;;;19.32;85.62;100788.81;5063986;28;8842;-75
2021/06/08 13:05:54;;;;;;;;;4.00;4.00;;;;;19.78;84.82;100802.41;5073909;28;8902;-75
2021/06/08 13:08:48;;;;;;;;;5.00;5.00;;;;;20.07;83.53;100821.03;5051066;28;8902;-74
2021/06/08 13:11:21;;;;;;;;;1.25;1.25;;;;;19.95;83.48;100812.97;5071928;28;8943;-74
2021/06/08 13:13:50;;;;;;;;;2.50;2.50;;;;;20.13;82.57;100804.66;5073892;28;8845;-75